Time;durP1;ratioP1;P1;durP2;ratioP2;P2;SDS_P1;SDS_P2;PMS_P1;PMS_P2;Temp;Humidity;BMP_temperature;BMP_pressure;BME280_temperature;BME280_humidity;BME280_pressure;Samples;Min_cycle;Max_cycle;Signal;HPM_P1;HPM_P2
2022/11/25 00:01:10;;;;;;;;;;;7.80;99.90;;;;;;5155799;27;19908;-40
2022/11/25 00:03:36;;;;;;;;;;;7.70;99.90;;;;;;5155258;27;19907;-39
2022/11/25 00:06:12;;;;;;;;;;;7.70;99.90;;;;;;5155692;27;19907;-42
2022/11/25 00:08:38;;;;;;;;;;;7.70;99.90;;;;;;5153913;27;19915;-39
2022/11/25 00:11:04;;;;;;;;;;;7.70;99.90;;;;;;5154400;27;20309;-39
2022/11/25 00:13:30;;;;;;;;;;;7.70;99.90;;;;;;5155509;27;20025;-41
2022/11/25 00:15:55;;;;;;;;;;;7.70;99.90;;;;;;5154687;27;19964;-40
2022/11/25 00:18:21;;;;;;;;;;;7.70;99.90;;;;;;5155461;27;19907;-40
2022/11/25 00:20:46;;;;;;;;;;;7.70;99.90;;;;;;5155434;27;19914;-40
2022/11/25 00:23:12;;;;;;;;;;;7.60;99.90;;;;;;5154629;27;20002;-40
2022/11/25 00:25:37;;;;;;;;;;;7.70;99.90;;;;;;5155289;27;19911;-41
2022/11/25 00:28:02;;;;;;;;;;;7.70;99.90;;;;;;5155309;27;19914;-40
2022/11/25 00:30:28;;;;;;;;;;;7.60;99.90;;;;;;5153981;27;19911;-42
2022/11/25 00:32:53;;;;;;;;;;;7.60;99.90;;;;;;5155169;27;19915;-39
2022/11/25 00:35:20;;;;;;;;;;;7.60;99.90;;;;;;5155097;27;20319;-41
2022/11/25 00:37:45;;;;;;;;;;;7.70;99.90;;;;;;5153832;27;19950;-39
2022/11/25 00:40:11;;;;;;;;;;;7.70;99.90;;;;;;5154827;27;20006;-40
2022/11/25 00:45:21;;;;;;;;;;;7.60;99.90;;;;;;5154384;27;20376;-40
2022/11/25 00:47:46;;;;;;;;;;;7.60;99.90;;;;;;5154850;27;19955;-42
2022/11/25 00:50:12;;;;;;;;;;;7.70;99.90;;;;;;5154669;27;19926;-40
2022/11/25 00:52:37;;;;;;;;;;;7.70;99.90;;;;;;5153880;27;20172;-40
2022/11/25 00:55:03;;;;;;;;;;;7.60;99.90;;;;;;5154890;27;20363;-41
2022/11/25 00:57:28;;;;;;;;;;;7.60;99.90;;;;;;5154734;27;19907;-41
2022/11/25 00:59:54;;;;;;;;;;;7.60;99.90;;;;;;5153890;27;19907;-41
2022/11/25 01:02:19;;;;;;;;;;;7.60;99.90;;;;;;5154707;27;19952;-39
2022/11/25 01:04:45;;;;;;;;;;;7.60;99.90;;;;;;5154459;27;20437;-46
2022/11/25 01:07:11;;;;;;;;;;;7.60;99.90;;;;;;5153944;27;19952;-39
2022/11/25 01:09:36;;;;;;;;;;;7.60;99.90;;;;;;5154062;27;19915;-42
2022/11/25 01:12:02;;;;;;;;;;;7.60;99.90;;;;;;5153682;27;19907;-40
2022/11/25 01:14:28;;;;;;;;;;;7.60;99.90;;;;;;5154483;27;20112;-40
2022/11/25 01:16:53;;;;;;;;;;;7.60;99.90;;;;;;5154378;27;19942;-39
2022/11/25 01:19:19;;;;;;;;;;;7.60;99.90;;;;;;5153754;27;19907;-41
2022/11/25 01:21:44;;;;;;;;;;;7.60;99.90;;;;;;5154377;27;20306;-39
2022/11/25 01:24:11;;;;;;;;;;;7.50;99.90;;;;;;5154403;27;20366;-40
2022/11/25 01:26:36;;;;;;;;;;;7.50;99.90;;;;;;5153653;27;20263;-39
2022/11/25 01:29:03;;;;;;;;;;;7.50;99.90;;;;;;5154389;27;19914;-40
2022/11/25 01:31:30;;;;;;;;;;;7.50;99.90;;;;;;5154414;27;19911;-39
2022/11/25 01:33:57;;;;;;;;;;;7.40;99.90;;;;;;5153477;27;19922;-40
2022/11/25 01:36:22;;;;;;;;;;;7.40;99.90;;;;;;5154146;27;19976;-39
2022/11/25 01:38:52;;;;;;;;;;;7.40;99.90;;;;;;5153970;27;19911;-39
2022/11/25 01:41:19;;;;;;;;;;;7.40;99.90;;;;;;5153306;27;19918;-39
2022/11/25 01:44:01;;;;;;;;;;;7.40;99.90;;;;;;5156417;27;19933;-42
2022/11/25 01:46:29;;;;;;;;;;;7.50;99.90;;;;;;5158551;27;19986;-39
2022/11/25 01:48:58;;;;;;;;;;;7.50;99.90;;;;;;5157508;27;19914;-41
2022/11/25 01:51:28;;;;;;;;;;;7.50;99.90;;;;;;5158216;27;20002;-40
2022/11/25 01:53:56;;;;;;;;;;;7.40;99.90;;;;;;5158193;27;20353;-41
2022/11/25 01:56:21;;;;;;;;;;;7.50;99.90;;;;;;5157508;27;19946;-40
2022/11/25 01:58:47;;;;;;;;;;;7.50;99.90;;;;;;5158090;27;20312;-41
2022/11/25 02:01:14;;;;;;;;;;;7.50;99.90;;;;;;5157452;27;19914;-39
2022/11/25 02:03:41;;;;;;;;;;;7.50;99.90;;;;;;5157864;27;19907;-39
2022/11/25 02:06:13;;;;;;;;;;;7.50;99.90;;;;;;5158188;27;19911;-39
2022/11/25 02:08:40;;;;;;;;;;;7.50;99.90;;;;;;5156816;27;19931;-39
2022/11/25 02:11:06;;;;;;;;;;;7.50;99.90;;;;;;5157713;27;20010;-40
2022/11/25 02:13:32;;;;;;;;;;;7.60;99.90;;;;;;5157656;27;20018;-41
2022/11/25 02:15:57;;;;;;;;;;;7.50;99.90;;;;;;5157064;27;19947;-40
2022/11/25 02:18:24;;;;;;;;;;;7.60;99.90;;;;;;5157793;27;20410;-39
2022/11/25 02:20:49;;;;;;;;;;;7.60;99.90;;;;;;5157783;27;20441;-40
2022/11/25 02:23:27;;;;;;;;;;;7.60;99.90;;;;;;5157074;27;19994;-41
2022/11/25 02:25:53;;;;;;;;;;;7.60;99.90;;;;;;5157619;27;19915;-39
2022/11/25 02:28:20;;;;;;;;;;;7.60;99.90;;;;;;5157155;27;19912;-40
2022/11/25 02:30:46;;;;;;;;;;;7.60;99.90;;;;;;5156595;27;20317;-42
2022/11/25 02:33:12;;;;;;;;;;;7.60;99.90;;;;;;5157565;27;20005;-39
2022/11/25 02:35:39;;;;;;;;;;;7.60;99.90;;;;;;5157126;27;19922;-39
2022/11/25 02:38:14;;;;;;;;;;;7.60;99.90;;;;;;5156531;27;20006;-40
2022/11/25 02:40:42;;;;;;;;;;;7.60;99.90;;;;;;5157288;27;20456;-40
2022/11/25 02:43:08;;;;;;;;;;;7.60;99.90;;;;;;5156925;27;20092;-41
2022/11/25 02:45:51;;;;;;;;;;;7.70;99.90;;;;;;5156459;27;19961;-41
2022/11/25 02:48:17;;;;;;;;;;;7.60;99.90;;;;;;5138749;27;19907;-40
2022/11/25 02:50:42;;;;;;;;;;;7.70;99.90;;;;;;5156158;27;19957;-40
2022/11/25 02:53:08;;;;;;;;;;;7.70;99.90;;;;;;5157143;27;20426;-41
2022/11/25 02:55:33;;;;;;;;;;;7.70;99.90;;;;;;5156535;27;19907;-41
2022/11/25 02:57:59;;;;;;;;;;;7.70;99.90;;;;;;5155437;27;19915;-39
2022/11/25 03:00:24;;;;;;;;;;;7.70;99.90;;;;;;5157091;27;19939;-39
2022/11/25 03:02:51;;;;;;;;;;;7.70;99.90;;;;;;5156904;27;19952;-40
2022/11/25 03:05:17;;;;;;;;;;;7.70;99.90;;;;;;5156150;27;20247;-40
2022/11/25 03:07:42;;;;;;;;;;;7.70;99.90;;;;;;5156779;27;19918;-39
2022/11/25 03:10:08;;;;;;;;;;;7.80;99.90;;;;;;5156805;27;19907;-42
2022/11/25 03:12:33;;;;;;;;;;;7.80;99.90;;;;;;5155917;27;19911;-41
2022/11/25 03:14:59;;;;;;;;;;;7.80;99.90;;;;;;5156773;27;19907;-39
2022/11/25 03:17:24;;;;;;;;;;;7.80;99.90;;;;;;5156134;27;19911;-39
2022/11/25 03:19:50;;;;;;;;;;;7.90;99.90;;;;;;5155704;27;19914;-39
2022/11/25 03:22:15;;;;;;;;;;;7.80;99.90;;;;;;5156726;27;19935;-40
2022/11/25 03:24:41;;;;;;;;;;;7.90;99.90;;;;;;5156577;27;20302;-41
2022/11/25 03:27:06;;;;;;;;;;;7.80;99.90;;;;;;5155753;27;19907;-39
2022/11/25 03:29:32;;;;;;;;;;;7.90;99.90;;;;;;5156068;27;19929;-39
2022/11/25 03:31:57;;;;;;;;;;;7.90;99.90;;;;;;5156376;27;19991;-40
2022/11/25 03:34:23;;;;;;;;;;;7.90;99.90;;;;;;5155582;27;20373;-39
2022/11/25 03:36:48;;;;;;;;;;;7.90;99.90;;;;;;5155119;27;19976;-40
2022/11/25 03:39:15;;;;;;;;;;;7.90;99.90;;;;;;5156366;27;19952;-41
2022/11/25 03:41:40;;;;;;;;;;;7.90;99.90;;;;;;5155105;27;19915;-43
2022/11/25 03:44:05;;;;;;;;;;;7.90;99.90;;;;;;5155938;27;19914;-39
2022/11/25 03:46:31;;;;;;;;;;;7.90;99.90;;;;;;5156001;27;19914;-41
2022/11/25 03:48:57;;;;;;;;;;;7.90;99.90;;;;;;5155605;27;19907;-42
2022/11/25 03:51:22;;;;;;;;;;;8.00;99.90;;;;;;5155545;27;20012;-38
2022/11/25 03:53:47;;;;;;;;;;;7.90;99.90;;;;;;5155377;27;19926;-39
2022/11/25 03:56:13;;;;;;;;;;;8.00;99.90;;;;;;5155957;27;19915;-38
2022/11/25 03:58:39;;;;;;;;;;;8.00;99.90;;;;;;5155919;27;19997;-39
2022/11/25 04:01:04;;;;;;;;;;;8.00;99.90;;;;;;5155082;27;19911;-42
2022/11/25 04:03:30;;;;;;;;;;;8.00;99.90;;;;;;5155829;27;19908;-40
2022/11/25 04:05:55;;;;;;;;;;;8.00;99.90;;;;;;5154544;27;20357;-40
2022/11/25 04:08:21;;;;;;;;;;;7.90;99.90;;;;;;5154925;27;19917;-38
2022/11/25 04:10:50;;;;;;;;;;;8.00;99.90;;;;;;5155623;27;19910;-39
2022/11/25 04:13:15;;;;;;;;;;;8.00;99.90;;;;;;5155515;27;20262;-40
2022/11/25 04:15:45;;;;;;;;;;;8.00;99.90;;;;;;5154696;27;20002;-42
2022/11/25 04:18:11;;;;;;;;;;;7.90;99.90;;;;;;5155490;27;19985;-40
2022/11/25 04:20:36;;;;;;;;;;;8.00;99.90;;;;;;5155320;27;19950;-39
2022/11/25 04:23:02;;;;;;;;;;;8.00;99.90;;;;;;5154533;27;19907;-40
2022/11/25 04:25:27;;;;;;;;;;;8.00;99.90;;;;;;5155405;27;19907;-40
2022/11/25 04:27:53;;;;;;;;;;;8.00;99.90;;;;;;5155186;27;19908;-40
2022/11/25 04:30:18;;;;;;;;;;;8.00;99.90;;;;;;5154331;27;19907;-41
2022/11/25 04:32:44;;;;;;;;;;;8.00;99.90;;;;;;5155011;27;19967;-39
2022/11/25 04:35:09;;;;;;;;;;;8.00;99.90;;;;;;5155299;27;19913;-40
2022/11/25 04:37:35;;;;;;;;;;;8.00;99.90;;;;;;5153686;27;20346;-40
2022/11/25 04:40:00;;;;;;;;;;;8.00;99.90;;;;;;5154800;27;19919;-38
2022/11/25 04:42:33;;;;;;;;;;;8.00;99.90;;;;;;5154916;27;19962;-41
2022/11/25 04:45:00;;;;;;;;;;;8.10;99.90;;;;;;5154255;27;19998;-41
2022/11/25 04:47:25;;;;;;;;;;;8.00;99.90;;;;;;5154845;27;19929;-39
2022/11/25 04:49:50;;;;;;;;;;;8.00;99.90;;;;;;5154039;27;20413;-47
2022/11/25 04:52:16;;;;;;;;;;;8.10;99.90;;;;;;5154516;27;19960;-41
2022/11/25 04:54:41;;;;;;;;;;;8.10;99.90;;;;;;5154741;27;19919;-40
2022/11/25 04:57:08;;;;;;;;;;;8.10;99.90;;;;;;5154170;27;19954;-41
2022/11/25 04:59:40;;;;;;;;;;;8.00;99.90;;;;;;5154759;27;19914;-40
2022/11/25 05:02:15;;;;;;;;;;;8.00;99.90;;;;;;5154927;27;19911;-40
2022/11/25 05:04:41;;;;;;;;;;;8.00;99.90;;;;;;5153938;27;20001;-41
2022/11/25 05:07:07;;;;;;;;;;;8.10;99.90;;;;;;5154269;27;19911;-41
2022/11/25 05:09:33;;;;;;;;;;;8.00;99.90;;;;;;5154554;27;19951;-41
2022/11/25 05:11:58;;;;;;;;;;;8.00;99.90;;;;;;5153874;27;19994;-39
2022/11/25 05:14:24;;;;;;;;;;;8.00;99.90;;;;;;5154414;27;19915;-43
2022/11/25 05:16:50;;;;;;;;;;;8.10;99.90;;;;;;5154133;27;19914;-39
2022/11/25 05:19:15;;;;;;;;;;;8.10;99.90;;;;;;5153518;27;19907;-40
2022/11/25 05:21:41;;;;;;;;;;;8.00;99.90;;;;;;5154440;27;19907;-40
2022/11/25 05:24:07;;;;;;;;;;;8.10;99.90;;;;;;5154546;27;19907;-39
2022/11/25 05:26:32;;;;;;;;;;;8.10;99.90;;;;;;5153706;27;19913;-39
2022/11/25 05:28:57;;;;;;;;;;;8.10;99.90;;;;;;5154425;27;19919;-39
2022/11/25 05:31:23;;;;;;;;;;;8.10;99.90;;;;;;5154497;27;19912;-40
2022/11/25 05:33:48;;;;;;;;;;;8.10;99.90;;;;;;5153095;27;20300;-41
2022/11/25 05:36:14;;;;;;;;;;;8.10;99.90;;;;;;5154384;27;19946;-38
2022/11/25 05:38:39;;;;;;;;;;;8.10;99.90;;;;;;5154319;27;19964;-39
2022/11/25 05:41:06;;;;;;;;;;;8.10;99.90;;;;;;5153634;27;19911;-39
2022/11/25 05:43:32;;;;;;;;;;;8.20;99.90;;;;;;5154143;27;19949;-38
2022/11/25 05:45:57;;;;;;;;;;;8.20;99.90;;;;;;5154189;27;19915;-40
2022/11/25 05:48:23;;;;;;;;;;;8.20;99.90;;;;;;5153399;27;19907;-42
2022/11/25 05:50:48;;;;;;;;;;;8.30;99.90;;;;;;5153991;27;19930;-39
2022/11/25 05:53:16;;;;;;;;;;;8.30;99.90;;;;;;5153365;27;20292;-41
2022/11/25 05:55:42;;;;;;;;;;;8.30;99.90;;;;;;5154094;27;19911;-41
2022/11/25 05:58:07;;;;;;;;;;;8.40;99.90;;;;;;5154132;27;19914;-40
2022/11/25 06:00:33;;;;;;;;;;;8.40;99.90;;;;;;5153297;27;19907;-39
2022/11/25 06:02:59;;;;;;;;;;;8.40;99.90;;;;;;5153358;27;19915;-41
2022/11/25 06:05:24;;;;;;;;;;;8.40;99.90;;;;;;5153686;27;19918;-40
2022/11/25 06:07:50;;;;;;;;;;;8.40;99.90;;;;;;5153179;27;20266;-41
2022/11/25 06:10:16;;;;;;;;;;;8.50;99.90;;;;;;5153973;27;20164;-41
2022/11/25 06:12:41;;;;;;;;;;;8.50;99.90;;;;;;5153827;27;19911;-40
2022/11/25 06:15:07;;;;;;;;;;;8.50;99.90;;;;;;5152931;27;20311;-41
2022/11/25 06:17:32;;;;;;;;;;;8.50;99.90;;;;;;5153983;27;20379;-42
2022/11/25 06:19:58;;;;;;;;;;;8.50;99.90;;;;;;5153875;27;19911;-43
2022/11/25 06:22:23;;;;;;;;;;;8.50;99.90;;;;;;5152752;27;20392;-41
2022/11/25 06:24:49;;;;;;;;;;;8.50;99.90;;;;;;5153751;27;19915;-40
2022/11/25 06:27:14;;;;;;;;;;;8.50;99.90;;;;;;5153754;27;19914;-41
2022/11/25 06:29:40;;;;;;;;;;;8.50;99.90;;;;;;5154707;27;19907;-40
2022/11/25 06:32:05;;;;;;;;;;;8.50;99.90;;;;;;5157544;27;20258;-42
2022/11/25 06:34:31;;;;;;;;;;;8.50;99.90;;;;;;5157131;27;19962;-42
2022/11/25 06:36:56;;;;;;;;;;;8.50;99.90;;;;;;5156613;27;19919;-42
2022/11/25 06:39:21;;;;;;;;;;;8.50;99.90;;;;;;5157512;27;19911;-40
2022/11/25 06:41:47;;;;;;;;;;;8.50;99.90;;;;;;5157298;27;20282;-39
2022/11/25 06:44:12;;;;;;;;;;;8.50;99.90;;;;;;5156533;27;19907;-42
2022/11/25 06:46:38;;;;;;;;;;;8.50;99.90;;;;;;5157393;27;19918;-39
2022/11/25 06:49:03;;;;;;;;;;;8.50;99.90;;;;;;5157202;27;19907;-41
2022/11/25 06:51:29;;;;;;;;;;;8.50;99.90;;;;;;5156186;27;19919;-40
2022/11/25 06:53:54;;;;;;;;;;;8.60;99.90;;;;;;5157069;27;19916;-42
2022/11/25 06:56:21;;;;;;;;;;;8.60;99.90;;;;;;5157136;27;19911;-40
2022/11/25 06:58:47;;;;;;;;;;;8.60;99.90;;;;;;5156242;27;19914;-40
2022/11/25 07:01:20;;;;;;;;;;;8.60;99.90;;;;;;5157088;27;19954;-42
2022/11/25 07:03:47;;;;;;;;;;;8.60;99.90;;;;;;5156142;27;19917;-39
2022/11/25 07:06:13;;;;;;;;;;;8.60;99.90;;;;;;5156867;27;19960;-39
2022/11/25 07:08:39;;;;;;;;;;;8.60;99.90;;;;;;5156671;27;19964;-41
2022/11/25 07:11:06;;;;;;;;;;;8.60;99.90;;;;;;5155845;27;19911;-41
2022/11/25 07:13:32;;;;;;;;;;;8.70;99.90;;;;;;5156411;27;19919;-41
2022/11/25 07:16:01;;;;;;;;;;;8.70;99.90;;;;;;5156642;27;19932;-39
2022/11/25 07:18:31;;;;;;;;;;;8.70;99.90;;;;;;5155907;27;20421;-40
2022/11/25 07:21:01;;;;;;;;;;;8.70;99.90;;;;;;5156349;27;19922;-38
2022/11/25 07:23:26;;;;;;;;;;;8.70;99.90;;;;;;5156582;27;19908;-42
2022/11/25 07:25:52;;;;;;;;;;;8.70;99.90;;;;;;5155605;27;19911;-40
2022/11/25 07:28:17;;;;;;;;;;;8.60;99.90;;;;;;5156509;27;19960;-40
2022/11/25 07:30:43;;;;;;;;;;;8.60;99.90;;;;;;5154890;27;19926;-39
2022/11/25 07:33:08;;;;;;;;;;;8.50;99.90;;;;;;5154973;27;20281;-38
2022/11/25 07:35:34;;;;;;;;;;;8.50;99.90;;;;;;5156271;27;19991;-40
2022/11/25 07:37:59;;;;;;;;;;;8.40;99.90;;;;;;5156091;27;19911;-38
2022/11/25 07:40:24;;;;;;;;;;;8.40;99.90;;;;;;5154185;27;20440;-42
2022/11/25 07:42:50;;;;;;;;;;;8.30;99.90;;;;;;5155820;27;20315;-40
2022/11/25 07:45:15;;;;;;;;;;;8.30;99.90;;;;;;5155878;27;19915;-40
2022/11/25 07:47:41;;;;;;;;;;;8.20;99.90;;;;;;5155492;27;19907;-41
2022/11/25 07:50:07;;;;;;;;;;;8.30;99.90;;;;;;5155706;27;20036;-39
2022/11/25 07:52:32;;;;;;;;;;;8.20;99.90;;;;;;5156015;27;19907;-40
2022/11/25 07:54:58;;;;;;;;;;;8.20;99.90;;;;;;5155105;27;20353;-42
2022/11/25 07:57:23;;;;;;;;;;;8.10;99.90;;;;;;5155948;27;19907;-40
2022/11/25 07:59:48;;;;;;;;;;;8.10;99.90;;;;;;5154582;27;20459;-39
2022/11/25 08:02:14;;;;;;;;;;;8.10;99.90;;;;;;5155817;27;19919;-41
2022/11/25 08:04:39;;;;;;;;;;;8.10;99.90;;;;;;5155675;27;19907;-40
2022/11/25 08:07:05;;;;;;;;;;;8.10;99.90;;;;;;5154506;27;20340;-43
2022/11/25 08:09:30;;;;;;;;;;;8.10;99.90;;;;;;5155587;27;19914;-38
2022/11/25 08:11:56;;;;;;;;;;;8.10;99.90;;;;;;5155202;27;20285;-42
2022/11/25 08:14:21;;;;;;;;;;;8.00;99.90;;;;;;5154060;27;19926;-41
2022/11/25 08:16:46;;;;;;;;;;;8.10;99.90;;;;;;5155176;27;19907;-40
2022/11/25 08:19:13;;;;;;;;;;;8.00;99.90;;;;;;5155499;27;19907;-41
2022/11/25 08:21:39;;;;;;;;;;;8.00;99.90;;;;;;5154459;27;19911;-40
2022/11/25 08:24:05;;;;;;;;;;;8.00;99.90;;;;;;5155417;27;19908;-40
2022/11/25 08:26:33;;;;;;;;;;;8.10;99.90;;;;;;5155317;27;20281;-38
2022/11/25 08:28:59;;;;;;;;;;;8.10;99.90;;;;;;5154389;27;19960;-39
2022/11/25 08:31:26;;;;;;;;;;;8.10;99.90;;;;;;5155261;27;19907;-40
2022/11/25 08:33:52;;;;;;;;;;;8.10;99.90;;;;;;5155041;27;19925;-40
2022/11/25 08:36:17;;;;;;;;;;;8.10;99.90;;;;;;5154464;27;19911;-38
2022/11/25 08:38:44;;;;;;;;;;;8.20;99.90;;;;;;5155112;27;20274;-43
2022/11/25 08:41:12;;;;;;;;;;;8.20;99.90;;;;;;5155031;27;19907;-39
2022/11/25 08:43:38;;;;;;;;;;;8.20;99.90;;;;;;5154129;27;20315;-39
2022/11/25 08:46:08;;;;;;;;;;;8.20;99.90;;;;;;5154972;27;20077;-41
2022/11/25 08:48:34;;;;;;;;;;;8.30;99.90;;;;;;5154616;27;19938;-42
2022/11/25 08:50:59;;;;;;;;;;;8.30;99.90;;;;;;5153304;27;20340;-42
2022/11/25 08:53:25;;;;;;;;;;;8.30;99.90;;;;;;5153771;27;19919;-42
2022/11/25 08:55:50;;;;;;;;;;;8.40;99.90;;;;;;5154581;27;19944;-39
2022/11/25 08:58:16;;;;;;;;;;;8.40;99.90;;;;;;5153884;27;19914;-40
2022/11/25 09:00:42;;;;;;;;;;;8.40;99.90;;;;;;5154672;27;19914;-41
2022/11/25 09:03:08;;;;;;;;;;;8.40;99.90;;;;;;5153827;27;20358;-41
2022/11/25 09:05:37;;;;;;;;;;;8.50;99.90;;;;;;5154728;27;19914;-41
2022/11/25 09:08:03;;;;;;;;;;;8.60;99.90;;;;;;5154706;27;19907;-42
2022/11/25 09:10:29;;;;;;;;;;;8.60;99.90;;;;;;5148964;27;19972;-40
2022/11/25 09:12:54;;;;;;;;;;;8.70;99.90;;;;;;5152514;27;19915;-39
2022/11/25 09:15:20;;;;;;;;;;;8.90;99.90;;;;;;5153742;27;19994;-42
2022/11/25 09:17:45;;;;;;;;;;;9.00;99.90;;;;;;5151781;27;19911;-40
2022/11/25 09:20:11;;;;;;;;;;;9.00;99.90;;;;;;5153452;27;19911;-40
2022/11/25 09:22:36;;;;;;;;;;;9.00;99.90;;;;;;5153076;27;19956;-41
2022/11/25 09:25:02;;;;;;;;;;;9.00;99.90;;;;;;5151914;27;19911;-38
2022/11/25 09:27:29;;;;;;;;;;;9.10;99.90;;;;;;5153361;27;19911;-40
2022/11/25 09:29:54;;;;;;;;;;;9.10;99.90;;;;;;5153269;27;19915;-39
2022/11/25 09:32:20;;;;;;;;;;;9.10;99.90;;;;;;5152364;27;19929;-43
2022/11/25 09:34:45;;;;;;;;;;;9.20;99.90;;;;;;5153127;27;19972;-41
2022/11/25 09:37:11;;;;;;;;;;;9.20;99.90;;;;;;5153393;27;19954;-40
2022/11/25 09:39:36;;;;;;;;;;;9.20;99.90;;;;;;5152465;27;19908;-45
2022/11/25 09:48:02;;;;;;;;;;;9.40;99.90;;;;;;5143475;27;19963;-41
2022/11/25 09:50:41;;;;;;;;;;;9.50;99.90;;;;;;5152746;27;19923;-42
2022/11/25 09:53:25;;;;;;;;;;;9.50;99.90;;;;;;5133887;27;19923;-42
2022/11/25 09:55:53;;;;;;;;;;;9.60;99.90;;;;;;5152703;27;19915;-41
2022/11/25 09:58:29;;;;;;;;;;;9.70;99.90;;;;;;5152731;27;20305;-39
2022/11/25 10:00:54;;;;;;;;;;;9.80;99.90;;;;;;5153123;27;19965;-40
2022/11/25 10:03:49;;;;;;;;;;;9.80;99.90;;;;;;5154007;27;19957;-41
2022/11/25 10:06:17;;;;;;;;;;;9.90;99.90;;;;;;5135372;27;19911;-42
2022/11/25 10:08:46;;;;;;;;;;;9.90;99.90;;;;;;5157107;27;19950;-40
2022/11/25 10:11:14;;;;;;;;;;;10.00;99.90;;;;;;5158030;27;20002;-40
2022/11/25 10:13:52;;;;;;;;;;;10.00;99.90;;;;;;5156597;27;20138;-40
2022/11/25 10:16:26;;;;;;;;;;;10.00;99.90;;;;;;5158040;27;19962;-40
2022/11/25 10:18:57;;;;;;;;;;;10.10;99.90;;;;;;5157647;27;20002;-42
2022/11/25 10:21:23;;;;;;;;;;;10.10;99.90;;;;;;5156912;27;19944;-43
2022/11/25 10:23:48;;;;;;;;;;;10.20;99.90;;;;;;5157522;27;19911;-43
2022/11/25 10:26:15;;;;;;;;;;;10.30;99.90;;;;;;5157362;27;20385;-42
2022/11/25 10:28:47;;;;;;;;;;;10.40;99.90;;;;;;5156175;27;20474;-47
2022/11/25 10:31:16;;;;;;;;;;;10.30;99.90;;;;;;5157046;27;20334;-42
2022/11/25 10:33:44;;;;;;;;;;;10.40;99.90;;;;;;5157305;27;19922;-40
2022/11/25 10:36:31;;;;;;;;;;;10.50;99.90;;;;;;5156366;27;19915;-41
2022/11/25 10:39:15;;;;;;;;;;;10.50;99.90;;;;;;5151844;27;19911;-43
2022/11/25 10:42:11;;;;;;;;;;;10.50;99.90;;;;;;5154358;27;19956;-40
2022/11/25 10:44:38;;;;;;;;;;;10.60;99.90;;;;;;5134640;27;19907;-40
2022/11/25 10:47:10;;;;;;;;;;;10.60;99.90;;;;;;5155373;27;19908;-41
2022/11/25 10:49:36;;;;;;;;;;;10.70;99.90;;;;;;5154783;27;19907;-42
2022/11/25 10:52:06;;;;;;;;;;;10.70;99.90;;;;;;5157001;27;20293;-40
2022/11/25 10:54:33;;;;;;;;;;;10.70;99.90;;;;;;5156397;27;20394;-41
2022/11/25 10:57:00;;;;;;;;;;;10.80;99.90;;;;;;5156358;27;19993;-41
2022/11/25 10:59:30;;;;;;;;;;;10.80;99.90;;;;;;5156991;27;19960;-41
2022/11/25 11:02:13;;;;;;;;;;;10.90;99.90;;;;;;5155969;27;19942;-42
2022/11/25 11:05:07;;;;;;;;;;;10.90;99.90;;;;;;5156385;27;19907;-43
2022/11/25 11:07:34;;;;;;;;;;;10.90;99.90;;;;;;5064851;27;19909;-42
2022/11/25 11:10:14;;;;;;;;;;;11.00;99.90;;;;;;5156225;27;19962;-42
2022/11/25 11:12:59;;;;;;;;;;;11.00;99.90;;;;;;5156747;27;20411;-40
2022/11/25 11:15:30;;;;;;;;;;;11.00;99.90;;;;;;5156567;27;19950;-42
2022/11/25 11:17:56;;;;;;;;;;;11.10;99.90;;;;;;5156082;27;19949;-41
2022/11/25 11:20:29;;;;;;;;;;;11.10;99.90;;;;;;5156772;27;19952;-43
2022/11/25 11:23:03;;;;;;;;;;;11.20;99.90;;;;;;5156603;27;20366;-40
2022/11/25 11:25:33;;;;;;;;;;;11.20;99.90;;;;;;5155945;27;19918;-39
2022/11/25 11:27:59;;;;;;;;;;;11.30;99.90;;;;;;5156569;27;20289;-42
2022/11/25 11:30:26;;;;;;;;;;;11.30;99.90;;;;;;5156297;27;19912;-41
2022/11/25 11:32:55;;;;;;;;;;;11.40;99.90;;;;;;5155583;27;19919;-40
2022/11/25 11:35:50;;;;;;;;;;;11.40;99.90;;;;;;5156522;27;20149;-42
2022/11/25 11:38:24;;;;;;;;;;;11.50;99.90;;;;;;5133111;27;19919;-42
2022/11/25 11:40:52;;;;;;;;;;;11.50;99.90;;;;;;5156399;27;20352;-40
2022/11/25 11:43:26;;;;;;;;;;;11.60;99.90;;;;;;5156307;27;19908;-40
2022/11/25 11:46:03;;;;;;;;;;;11.50;99.90;;;;;;5155057;27;19925;-43
2022/11/25 11:48:32;;;;;;;;;;;11.50;99.90;;;;;;5156203;27;20262;-41
2022/11/25 11:51:01;;;;;;;;;;;11.40;99.90;;;;;;5155348;27;20006;-39
2022/11/25 11:53:27;;;;;;;;;;;11.40;99.90;;;;;;5155143;27;19971;-39
2022/11/25 11:56:03;;;;;;;;;;;11.30;99.90;;;;;;5155991;27;19911;-40
2022/11/25 11:58:46;;;;;;;;;;;11.30;99.90;;;;;;5156103;27;20450;-40
2022/11/25 12:01:21;;;;;;;;;;;11.30;99.90;;;;;;5155175;27;19958;-42
2022/11/25 12:03:57;;;;;;;;;;;11.40;99.90;;;;;;5155859;27;20002;-44
2022/11/25 12:06:24;;;;;;;;;;;11.60;99.90;;;;;;5155092;27;19915;-40
2022/11/25 12:08:55;;;;;;;;;;;11.60;99.90;;;;;;5155683;27;20277;-42
2022/11/25 12:11:23;;;;;;;;;;;11.60;99.90;;;;;;5155830;27;19907;-40
2022/11/25 12:13:58;;;;;;;;;;;11.50;99.90;;;;;;5154590;27;20007;-41
2022/11/25 12:16:26;;;;;;;;;;;11.50;99.90;;;;;;5136840;27;19907;-40
2022/11/25 12:19:10;;;;;;;;;;;11.50;99.90;;;;;;5155536;27;19956;-42
2022/11/25 12:21:53;;;;;;;;;;;11.50;99.90;;;;;;5154726;27;19907;-41
2022/11/25 12:24:28;;;;;;;;;;;11.60;99.90;;;;;;5155431;27;19914;-42
2022/11/25 12:26:56;;;;;;;;;;;11.50;99.90;;;;;;5154629;27;19994;-39
2022/11/25 12:29:25;;;;;;;;;;;11.40;99.90;;;;;;5154641;27;20357;-41
2022/11/25 12:32:11;;;;;;;;;;;11.40;99.90;;;;;;5155269;27;19914;-41
2022/11/25 12:34:40;;;;;;;;;;;11.30;99.90;;;;;;5154060;27;19915;-40
2022/11/25 12:37:25;;;;;;;;;;;11.20;99.90;;;;;;5155514;27;19998;-40
2022/11/25 12:39:58;;;;;;;;;;;11.20;99.90;;;;;;5155124;27;20366;-40
2022/11/25 12:42:24;;;;;;;;;;;11.20;99.90;;;;;;5154368;27;19913;-40
2022/11/25 12:45:03;;;;;;;;;;;11.20;99.90;;;;;;5155042;27;19911;-40
2022/11/25 12:47:29;;;;;;;;;;;11.20;99.90;;;;;;5134255;27;20310;-40
2022/11/25 12:49:55;;;;;;;;;;;11.20;99.90;;;;;;5133487;27;19908;-41
2022/11/25 12:52:21;;;;;;;;;;;11.20;99.90;;;;;;5134017;27;19919;-42
2022/11/25 12:55:03;;;;;;;;;;;11.20;99.90;;;;;;5146132;27;19926;-41
2022/11/25 12:57:37;;;;;;;;;;;11.20;99.90;;;;;;5154273;27;19914;-41
2022/11/25 13:00:12;;;;;;;;;;;11.20;99.90;;;;;;5154833;27;19914;-40
2022/11/25 13:02:48;;;;;;;;;;;11.20;99.90;;;;;;5154057;27;19915;-40
2022/11/25 13:05:32;;;;;;;;;;;11.20;99.90;;;;;;5154907;27;19973;-42
2022/11/25 13:08:22;;;;;;;;;;;11.10;99.90;;;;;;5154683;27;19915;-41
2022/11/25 13:10:51;;;;;;;;;;;11.20;99.90;;;;;;5154111;27;19907;-41
2022/11/25 13:13:35;;;;;;;;;;;11.40;99.90;;;;;;5154683;27;19914;-41
2022/11/25 13:16:02;;;;;;;;;;;11.60;99.90;;;;;;5154487;27;20436;-42
2022/11/25 13:18:30;;;;;;;;;;;11.70;99.90;;;;;;5153841;27;19907;-40
2022/11/25 13:20:55;;;;;;;;;;;11.80;99.90;;;;;;5154170;27;19911;-40
2022/11/25 13:23:23;;;;;;;;;;;12.00;99.90;;;;;;5153421;27;20423;-42
2022/11/25 13:25:49;;;;;;;;;;;12.20;99.90;;;;;;5154454;27;19907;-42
2022/11/25 13:28:30;;;;;;;;;;;12.50;99.90;;;;;;5154569;27;19908;-41
2022/11/25 13:31:15;;;;;;;;;;;12.80;99.90;;;;;;5153464;27;20273;-42
2022/11/25 13:33:44;;;;;;;;;;;12.90;99.90;;;;;;5154263;27;19948;-41
2022/11/25 13:36:20;;;;;;;;;;;13.00;99.90;;;;;;5154404;27;19911;-41
2022/11/25 13:38:48;;;;;;;;;;;13.10;99.90;;;;;;5155871;27;19914;-40
2022/11/25 13:41:20;;;;;;;;;;;12.90;99.90;;;;;;5158984;27;19997;-41
2022/11/25 13:43:51;;;;;;;;;;;12.80;99.90;;;;;;5158567;27;19921;-42
2022/11/25 13:46:35;;;;;;;;;;;12.80;99.90;;;;;;5157818;27;19907;-43
2022/11/25 13:49:00;;;;;;;;;;;13.00;99.90;;;;;;5158570;27;19952;-40
2022/11/25 13:51:26;;;;;;;;;;;13.30;99.90;;;;;;5157188;27;19959;-44
2022/11/25 13:53:59;;;;;;;;;;;13.50;99.90;;;;;;5158236;27;19919;-40
2022/11/25 13:56:32;;;;;;;;;;;13.60;99.90;;;;;;5158468;27;19960;-41
2022/11/25 13:59:09;;;;;;;;;;;13.50;99.90;;;;;;5157134;27;20281;-41
2022/11/25 14:01:35;;;;;;;;;;;13.20;99.90;;;;;;5157878;27;19911;-40
2022/11/25 14:04:04;;;;;;;;;;;12.80;99.90;;;;;;5158170;27;20035;-40
2022/11/25 14:06:32;;;;;;;;;;;12.50;99.90;;;;;;5157315;27;19911;-43
2022/11/25 14:09:04;;;;;;;;;;;12.40;99.90;;;;;;5158083;27;19907;-41
2022/11/25 14:11:29;;;;;;;;;;;12.40;99.90;;;;;;5158149;27;19915;-43
2022/11/25 14:14:00;;;;;;;;;;;12.30;99.90;;;;;;5157086;27;20358;-41
2022/11/25 14:16:41;;;;;;;;;;;12.20;99.90;;;;;;5158078;27;19907;-42
2022/11/25 14:19:06;;;;;;;;;;;12.10;99.90;;;;;;5157909;27;19960;-41
2022/11/25 14:21:31;;;;;;;;;;;11.90;99.90;;;;;;5156714;27;19915;-41
2022/11/25 14:24:05;;;;;;;;;;;11.70;99.90;;;;;;5157829;27;19915;-40
2022/11/25 14:26:32;;;;;;;;;;;11.70;99.90;;;;;;5157802;27;20395;-40
2022/11/25 14:29:19;;;;;;;;;;;11.50;99.90;;;;;;5157012;27;19911;-40
2022/11/25 14:31:49;;;;;;;;;;;11.40;99.90;;;;;;5157589;27;19997;-40
2022/11/25 14:34:18;;;;;;;;;;;11.30;99.90;;;;;;5156921;27;19954;-41
2022/11/25 14:36:46;;;;;;;;;;;11.20;99.90;;;;;;5157562;27;19919;-40
2022/11/25 14:39:19;;;;;;;;;;;11.10;99.90;;;;;;5157601;27;19907;-41
2022/11/25 14:42:03;;;;;;;;;;;11.00;99.90;;;;;;5156651;27;19918;-41